sensor_id;sensor_type;location;lat;lon;timestamp;P1;P2;P0
62547;PMS7003;48602;45.192;5.722;2023-02-15T00:01:40;54.33;44.00;30.67
62547;PMS7003;48602;45.192;5.722;2023-02-15T00:04:06;53.33;46.33;30.33
62547;PMS7003;48602;45.192;5.722;2023-02-15T00:06:33;55.00;42.00;31.00
62547;PMS7003;48602;45.192;5.722;2023-02-15T00:08:59;54.67;42.67;32.00
62547;PMS7003;48602;45.192;5.722;2023-02-15T00:11:25;58.67;43.33;31.00
62547;PMS7003;48602;45.192;5.722;2023-02-15T00:16:40;63.00;48.67;32.33
62547;PMS7003;48602;45.192;5.722;2023-02-15T00:19:08;59.00;46.67;32.00
62547;PMS7003;48602;45.192;5.722;2023-02-15T00:21:35;54.33;43.67;28.67
62547;PMS7003;48602;45.192;5.722;2023-02-15T00:24:03;56.33;45.33;33.00
62547;PMS7003;48602;45.192;5.722;2023-02-15T00:26:30;52.67;44.33;30.67
62547;PMS7003;48602;45.192;5.722;2023-02-15T00:28:56;60.67;46.33;30.67
62547;PMS7003;48602;45.192;5.722;2023-02-15T00:31:23;60.33;48.67;33.33
62547;PMS7003;48602;45.192;5.722;2023-02-15T00:33:49;61.33;48.33;33.33
62547;PMS7003;48602;45.192;5.722;2023-02-15T00:36:15;58.67;47.67;32.67
62547;PMS7003;48602;45.192;5.722;2023-02-15T00:38:40;59.67;48.67;33.33
62547;PMS7003;48602;45.192;5.722;2023-02-15T00:41:06;60.67;48.00;33.33
62547;PMS7003;48602;45.192;5.722;2023-02-15T00:43:33;63.00;49.33;34.33
62547;PMS7003;48602;45.192;5.722;2023-02-15T00:46:00;63.00;48.00;35.00
62547;PMS7003;48602;45.192;5.722;2023-02-15T00:48:26;65.33;49.67;35.00
62547;PMS7003;48602;45.192;5.722;2023-02-15T00:50:52;60.33;48.67;33.33
62547;PMS7003;48602;45.192;5.722;2023-02-15T00:53:19;66.33;52.67;34.67
62547;PMS7003;48602;45.192;5.722;2023-02-15T00:55:45;61.67;49.33;34.00
62547;PMS7003;48602;45.192;5.722;2023-02-15T00:58:11;62.00;46.33;33.67
62547;PMS7003;48602;45.192;5.722;2023-02-15T01:00:38;65.00;50.67;35.00
62547;PMS7003;48602;45.192;5.722;2023-02-15T01:03:05;56.00;45.00;32.33
62547;PMS7003;48602;45.192;5.722;2023-02-15T01:05:30;61.00;49.00;33.67
62547;PMS7003;48602;45.192;5.722;2023-02-15T01:07:57;57.00;44.00;31.00
62547;PMS7003;48602;45.192;5.722;2023-02-15T01:10:23;64.00;49.00;34.33
62547;PMS7003;48602;45.192;5.722;2023-02-15T01:12:49;57.33;46.00;33.00
62547;PMS7003;48602;45.192;5.722;2023-02-15T01:15:16;62.33;48.33;33.00
62547;PMS7003;48602;45.192;5.722;2023-02-15T01:17:41;63.75;52.25;36.25
62547;PMS7003;48602;45.192;5.722;2023-02-15T01:20:09;64.67;51.33;36.00
62547;PMS7003;48602;45.192;5.722;2023-02-15T01:22:34;60.33;48.67;34.00
62547;PMS7003;48602;45.192;5.722;2023-02-15T01:25:00;61.33;48.00;34.00
62547;PMS7003;48602;45.192;5.722;2023-02-15T01:27:25;63.33;50.33;34.00
62547;PMS7003;48602;45.192;5.722;2023-02-15T01:29:50;58.67;48.00;35.00
62547;PMS7003;48602;45.192;5.722;2023-02-15T01:32:16;60.00;46.67;33.33
62547;PMS7003;48602;45.192;5.722;2023-02-15T01:34:41;57.00;46.33;31.67
62547;PMS7003;48602;45.192;5.722;2023-02-15T01:37:07;64.67;48.33;34.00
62547;PMS7003;48602;45.192;5.722;2023-02-15T01:39:32;56.67;46.00;32.00
62547;PMS7003;48602;45.192;5.722;2023-02-15T01:41:57;61.33;48.00;32.33
62547;PMS7003;48602;45.192;5.722;2023-02-15T01:47:13;58.67;48.67;32.33
62547;PMS7003;48602;45.192;5.722;2023-02-15T01:49:42;62.33;48.00;34.00
62547;PMS7003;48602;45.192;5.722;2023-02-15T01:52:10;60.33;47.33;32.67
62547;PMS7003;48602;45.192;5.722;2023-02-15T01:54:41;56.00;45.67;33.00
62547;PMS7003;48602;45.192;5.722;2023-02-15T01:57:13;61.00;48.00;32.00
62547;PMS7003;48602;45.192;5.722;2023-02-15T01:59:44;57.00;47.00;32.67
62547;PMS7003;48602;45.192;5.722;2023-02-15T02:02:15;59.33;44.33;32.67
62547;PMS7003;48602;45.192;5.722;2023-02-15T02:04:49;55.33;42.33;31.00
62547;PMS7003;48602;45.192;5.722;2023-02-15T02:07:21;46.00;36.67;24.33
62547;PMS7003;48602;45.192;5.722;2023-02-15T02:09:49;48.33;42.33;28.33
62547;PMS7003;48602;45.192;5.722;2023-02-15T02:12:15;44.00;39.00;27.00
62547;PMS7003;48602;45.192;5.722;2023-02-15T02:14:43;54.67;43.00;30.33
62547;PMS7003;48602;45.192;5.722;2023-02-15T02:25:35;46.00;38.33;26.33
62547;PMS7003;48602;45.192;5.722;2023-02-15T02:42:41;42.33;38.00;27.67
62547;PMS7003;48602;45.192;5.722;2023-02-15T02:45:12;43.67;40.00;29.00
62547;PMS7003;48602;45.192;5.722;2023-02-15T02:47:40;54.67;40.67;27.67
62547;PMS7003;48602;45.192;5.722;2023-02-15T02:50:15;47.00;39.67;28.67
62547;PMS7003;48602;45.192;5.722;2023-02-15T02:52:49;51.67;39.00;28.33
62547;PMS7003;48602;45.192;5.722;2023-02-15T02:57:44;42.67;39.00;28.67
62547;PMS7003;48602;45.192;5.722;2023-02-15T03:00:15;45.67;38.33;28.67
62547;PMS7003;48602;45.192;5.722;2023-02-15T03:02:43;50.33;41.00;29.33
62547;PMS7003;48602;45.192;5.722;2023-02-15T03:05:13;49.67;43.00;29.00
62547;PMS7003;48602;45.192;5.722;2023-02-15T03:07:44;47.00;36.67;28.00
62547;PMS7003;48602;45.192;5.722;2023-02-15T03:10:14;57.33;44.00;30.67
62547;PMS7003;48602;45.192;5.722;2023-02-15T03:12:42;46.00;39.67;31.33
62547;PMS7003;48602;45.192;5.722;2023-02-15T03:15:09;53.33;41.33;26.67
62547;PMS7003;48602;45.192;5.722;2023-02-15T03:17:40;51.33;41.00;27.00
62547;PMS7003;48602;45.192;5.722;2023-02-15T03:20:20;55.00;46.67;32.00
62547;PMS7003;48602;45.192;5.722;2023-02-15T03:22:54;63.00;47.00;34.00
62547;PMS7003;48602;45.192;5.722;2023-02-15T03:25:30;52.33;40.33;28.00
62547;PMS7003;48602;45.192;5.722;2023-02-15T03:27:59;61.33;49.00;34.00
62547;PMS7003;48602;45.192;5.722;2023-02-15T03:30:28;64.33;49.33;34.33
62547;PMS7003;48602;45.192;5.722;2023-02-15T03:32:57;62.00;49.33;32.33
62547;PMS7003;48602;45.192;5.722;2023-02-15T03:35:25;57.00;47.67;34.33
62547;PMS7003;48602;45.192;5.722;2023-02-15T03:38:08;63.67;50.33;33.67
62547;PMS7003;48602;45.192;5.722;2023-02-15T03:40:40;58.67;46.67;32.67
62547;PMS7003;48602;45.192;5.722;2023-02-15T03:48:47;56.33;45.00;32.00
62547;PMS7003;48602;45.192;5.722;2023-02-15T03:51:22;53.00;43.00;30.33
62547;PMS7003;48602;45.192;5.722;2023-02-15T03:53:59;54.67;44.33;31.00
62547;PMS7003;48602;45.192;5.722;2023-02-15T03:56:28;54.67;45.67;32.33
62547;PMS7003;48602;45.192;5.722;2023-02-15T03:58:54;51.00;44.00;31.33
62547;PMS7003;48602;45.192;5.722;2023-02-15T04:04:38;56.33;43.67;29.33
62547;PMS7003;48602;45.192;5.722;2023-02-15T04:07:07;53.00;41.00;30.67
62547;PMS7003;48602;45.192;5.722;2023-02-15T04:09:34;55.67;47.00;32.00
62547;PMS7003;48602;45.192;5.722;2023-02-15T04:12:18;55.00;43.67;30.00
62547;PMS7003;48602;45.192;5.722;2023-02-15T04:14:43;60.33;47.33;33.67
62547;PMS7003;48602;45.192;5.722;2023-02-15T04:17:27;55.33;44.00;32.00
62547;PMS7003;48602;45.192;5.722;2023-02-15T04:19:53;58.00;47.00;31.67
62547;PMS7003;48602;45.192;5.722;2023-02-15T04:22:37;52.33;44.67;29.67
62547;PMS7003;48602;45.192;5.722;2023-02-15T04:25:21;52.33;41.00;29.33
62547;PMS7003;48602;45.192;5.722;2023-02-15T04:27:49;54.00;42.00;28.33
62547;PMS7003;48602;45.192;5.722;2023-02-15T04:30:16;53.00;42.67;30.00
62547;PMS7003;48602;45.192;5.722;2023-02-15T04:32:43;55.67;45.00;31.67
62547;PMS7003;48602;45.192;5.722;2023-02-15T04:35:09;56.33;44.67;31.00
62547;PMS7003;48602;45.192;5.722;2023-02-15T04:37:35;54.00;43.00;28.00
62547;PMS7003;48602;45.192;5.722;2023-02-15T04:40:00;50.00;41.00;29.33
62547;PMS7003;48602;45.192;5.722;2023-02-15T04:42:27;54.33;43.00;31.00
62547;PMS7003;48602;45.192;5.722;2023-02-15T04:44:53;50.33;42.33;30.67
62547;PMS7003;48602;45.192;5.722;2023-02-15T04:47:19;49.33;41.67;29.67
62547;PMS7003;48602;45.192;5.722;2023-02-15T04:49:45;54.00;44.00;30.00
62547;PMS7003;48602;45.192;5.722;2023-02-15T04:52:10;48.33;42.33;30.67
62547;PMS7003;48602;45.192;5.722;2023-02-15T04:54:36;57.33;46.00;31.00
62547;PMS7003;48602;45.192;5.722;2023-02-15T04:57:04;48.67;40.00;29.33
62547;PMS7003;48602;45.192;5.722;2023-02-15T04:59:29;42.00;38.67;28.33
62547;PMS7003;48602;45.192;5.722;2023-02-15T05:01:55;46.00;40.33;29.00
62547;PMS7003;48602;45.192;5.722;2023-02-15T05:04:20;51.33;43.00;31.00
62547;PMS7003;48602;45.192;5.722;2023-02-15T05:06:46;55.00;44.00;30.33
62547;PMS7003;48602;45.192;5.722;2023-02-15T05:09:11;42.33;35.00;27.67
62547;PMS7003;48602;45.192;5.722;2023-02-15T05:11:37;50.33;42.00;30.33
62547;PMS7003;48602;45.192;5.722;2023-02-15T05:14:03;53.33;44.33;30.00
62547;PMS7003;48602;45.192;5.722;2023-02-15T05:16:28;44.33;37.33;27.00
62547;PMS7003;48602;45.192;5.722;2023-02-15T05:18:54;43.67;38.33;27.00
62547;PMS7003;48602;45.192;5.722;2023-02-15T05:21:19;43.33;38.00;28.67
62547;PMS7003;48602;45.192;5.722;2023-02-15T05:23:44;46.33;40.00;29.00
62547;PMS7003;48602;45.192;5.722;2023-02-15T05:26:11;39.67;35.33;25.00
62547;PMS7003;48602;45.192;5.722;2023-02-15T05:28:56;47.67;38.00;27.00
62547;PMS7003;48602;45.192;5.722;2023-02-15T05:31:21;42.33;37.00;27.33
62547;PMS7003;48602;45.192;5.722;2023-02-15T05:33:47;46.33;38.33;27.00
62547;PMS7003;48602;45.192;5.722;2023-02-15T05:36:12;57.00;42.33;27.67
62547;PMS7003;48602;45.192;5.722;2023-02-15T05:38:38;52.33;44.67;29.00
62547;PMS7003;48602;45.192;5.722;2023-02-15T05:41:04;45.00;41.00;29.33
62547;PMS7003;48602;45.192;5.722;2023-02-15T05:43:31;41.33;37.00;27.67
62547;PMS7003;48602;45.192;5.722;2023-02-15T05:45:56;49.00;38.33;27.33
62547;PMS7003;48602;45.192;5.722;2023-02-15T05:48:23;51.00;39.33;27.00
62547;PMS7003;48602;45.192;5.722;2023-02-15T05:50:59;49.33;39.67;27.33
62547;PMS7003;48602;45.192;5.722;2023-02-15T05:53:30;46.00;39.00;27.67
62547;PMS7003;48602;45.192;5.722;2023-02-15T05:55:57;48.00;40.67;30.00
62547;PMS7003;48602;45.192;5.722;2023-02-15T05:58:27;52.33;43.33;28.67
62547;PMS7003;48602;45.192;5.722;2023-02-15T06:00:54;55.33;42.67;32.00
62547;PMS7003;48602;45.192;5.722;2023-02-15T06:03:20;57.67;41.67;29.67
62547;PMS7003;48602;45.192;5.722;2023-02-15T06:05:46;53.33;44.33;32.00
62547;PMS7003;48602;45.192;5.722;2023-02-15T06:08:12;58.67;47.33;31.67
62547;PMS7003;48602;45.192;5.722;2023-02-15T06:10:37;53.00;42.67;30.67
62547;PMS7003;48602;45.192;5.722;2023-02-15T06:13:05;56.67;45.33;31.67
62547;PMS7003;48602;45.192;5.722;2023-02-15T06:15:30;53.33;41.67;30.67
62547;PMS7003;48602;45.192;5.722;2023-02-15T06:17:56;53.67;42.00;29.33
62547;PMS7003;48602;45.192;5.722;2023-02-15T06:20:21;58.33;48.67;33.00
62547;PMS7003;48602;45.192;5.722;2023-02-15T06:22:47;53.67;44.33;33.00
62547;PMS7003;48602;45.192;5.722;2023-02-15T06:25:12;52.67;42.00;30.67
62547;PMS7003;48602;45.192;5.722;2023-02-15T06:27:40;57.00;43.33;29.33
62547;PMS7003;48602;45.192;5.722;2023-02-15T06:30:07;50.67;43.67;30.67
62547;PMS7003;48602;45.192;5.722;2023-02-15T06:32:33;56.33;45.67;32.00
62547;PMS7003;48602;45.192;5.722;2023-02-15T06:34:59;53.33;42.67;30.33
62547;PMS7003;48602;45.192;5.722;2023-02-15T06:37:24;52.67;42.33;29.33
62547;PMS7003;48602;45.192;5.722;2023-02-15T06:39:50;44.33;37.67;26.33
62547;PMS7003;48602;45.192;5.722;2023-02-15T06:42:15;46.67;39.00;27.67
62547;PMS7003;48602;45.192;5.722;2023-02-15T06:44:42;45.67;40.33;29.00
62547;PMS7003;48602;45.192;5.722;2023-02-15T06:47:08;56.00;41.33;29.00
62547;PMS7003;48602;45.192;5.722;2023-02-15T06:49:33;48.00;41.67;28.67
62547;PMS7003;48602;45.192;5.722;2023-02-15T06:51:59;41.67;37.33;28.00
62547;PMS7003;48602;45.192;5.722;2023-02-15T06:54:24;46.67;39.33;28.00
62547;PMS7003;48602;45.192;5.722;2023-02-15T06:56:50;44.33;37.00;26.00
62547;PMS7003;48602;45.192;5.722;2023-02-15T06:59:15;44.67;40.00;29.00
62547;PMS7003;48602;45.192;5.722;2023-02-15T07:01:40;55.67;43.67;29.67
62547;PMS7003;48602;45.192;5.722;2023-02-15T07:04:06;40.33;38.67;27.67
62547;PMS7003;48602;45.192;5.722;2023-02-15T07:06:32;47.00;41.00;29.00
62547;PMS7003;48602;45.192;5.722;2023-02-15T07:08:58;51.67;42.00;29.00
62547;PMS7003;48602;45.192;5.722;2023-02-15T07:11:24;47.67;41.00;29.33
62547;PMS7003;48602;45.192;5.722;2023-02-15T07:14:08;55.00;43.67;29.00
62547;PMS7003;48602;45.192;5.722;2023-02-15T07:16:33;46.33;39.00;27.67
62547;PMS7003;48602;45.192;5.722;2023-02-15T07:18:58;36.00;36.00;28.67
62547;PMS7003;48602;45.192;5.722;2023-02-15T07:21:24;45.67;39.00;29.00
62547;PMS7003;48602;45.192;5.722;2023-02-15T07:23:49;43.33;35.33;25.67
62547;PMS7003;48602;45.192;5.722;2023-02-15T07:26:14;53.67;43.00;30.33
62547;PMS7003;48602;45.192;5.722;2023-02-15T07:28:40;56.33;40.67;28.67
62547;PMS7003;48602;45.192;5.722;2023-02-15T07:31:05;34.33;30.33;24.67
62547;PMS7003;48602;45.192;5.722;2023-02-15T07:33:31;45.67;40.00;28.33
62547;PMS7003;48602;45.192;5.722;2023-02-15T07:35:57;46.33;40.33;28.00
62547;PMS7003;48602;45.192;5.722;2023-02-15T07:38:27;52.67;44.33;32.00
62547;PMS7003;48602;45.192;5.722;2023-02-15T07:41:01;57.33;42.00;31.00
62547;PMS7003;48602;45.192;5.722;2023-02-15T07:43:36;50.67;41.33;29.33
62547;PMS7003;48602;45.192;5.722;2023-02-15T07:46:04;53.67;42.33;28.00
62547;PMS7003;48602;45.192;5.722;2023-02-15T07:48:34;56.67;43.67;30.33
62547;PMS7003;48602;45.192;5.722;2023-02-15T07:51:01;59.67;46.67;29.67
62547;PMS7003;48602;45.192;5.722;2023-02-15T07:53:28;52.33;44.00;30.33
62547;PMS7003;48602;45.192;5.722;2023-02-15T07:55:58;58.00;44.67;30.00
62547;PMS7003;48602;45.192;5.722;2023-02-15T07:58:28;59.33;47.33;31.00
62547;PMS7003;48602;45.192;5.722;2023-02-15T08:01:15;56.00;43.67;33.33
62547;PMS7003;48602;45.192;5.722;2023-02-15T08:03:42;49.33;44.67;32.33
62547;PMS7003;48602;45.192;5.722;2023-02-15T08:06:08;50.33;41.67;29.33
62547;PMS7003;48602;45.192;5.722;2023-02-15T08:08:34;58.67;45.00;31.67
62547;PMS7003;48602;45.192;5.722;2023-02-15T08:11:04;44.00;39.67;29.67
62547;PMS7003;48602;45.192;5.722;2023-02-15T08:16:38;54.00;42.00;31.00
62547;PMS7003;48602;45.192;5.722;2023-02-15T08:19:06;46.33;40.33;29.00
62547;PMS7003;48602;45.192;5.722;2023-02-15T08:21:34;48.67;43.67;30.33
62547;PMS7003;48602;45.192;5.722;2023-02-15T08:24:01;48.33;39.33;29.67
62547;PMS7003;48602;45.192;5.722;2023-02-15T08:26:28;51.33;42.67;31.67
62547;PMS7003;48602;45.192;5.722;2023-02-15T08:28:55;52.00;42.50;28.50
62547;PMS7003;48602;45.192;5.722;2023-02-15T08:31:20;58.67;42.33;29.33
62547;PMS7003;48602;45.192;5.722;2023-02-15T08:33:47;53.33;44.33;30.67
62547;PMS7003;48602;45.192;5.722;2023-02-15T08:36:15;37.33;36.00;24.67
62547;PMS7003;48602;45.192;5.722;2023-02-15T08:38:45;51.67;41.00;28.33
62547;PMS7003;48602;45.192;5.722;2023-02-15T08:43:47;54.67;44.00;29.00
62547;PMS7003;48602;45.192;5.722;2023-02-15T08:46:19;46.67;40.67;30.33
62547;PMS7003;48602;45.192;5.722;2023-02-15T08:48:46;56.67;47.33;32.00
62547;PMS7003;48602;45.192;5.722;2023-02-15T08:51:12;50.33;43.67;30.33
62547;PMS7003;48602;45.192;5.722;2023-02-15T08:53:40;51.00;40.67;28.67
62547;PMS7003;48602;45.192;5.722;2023-02-15T08:56:08;58.67;43.00;29.67
62547;PMS7003;48602;45.192;5.722;2023-02-15T08:58:35;52.00;44.33;32.00
62547;PMS7003;48602;45.192;5.722;2023-02-15T09:01:01;56.00;43.00;30.00
62547;PMS7003;48602;45.192;5.722;2023-02-15T09:03:36;58.00;43.33;28.00
62547;PMS7003;48602;45.192;5.722;2023-02-15T09:06:01;45.67;40.67;29.00
62547;PMS7003;48602;45.192;5.722;2023-02-15T09:08:27;50.33;43.33;31.33
62547;PMS7003;48602;45.192;5.722;2023-02-15T09:10:53;56.33;45.67;32.33
62547;PMS7003;48602;45.192;5.722;2023-02-15T09:13:19;51.67;42.33;28.33
62547;PMS7003;48602;45.192;5.722;2023-02-15T09:15:45;57.67;47.33;33.67
62547;PMS7003;48602;45.192;5.722;2023-02-15T09:18:11;51.00;43.67;31.67
62547;PMS7003;48602;45.192;5.722;2023-02-15T09:20:42;56.33;46.33;32.00
62547;PMS7003;48602;45.192;5.722;2023-02-15T09:23:08;55.33;43.33;32.67
62547;PMS7003;48602;45.192;5.722;2023-02-15T09:25:33;49.00;40.00;31.00
62547;PMS7003;48602;45.192;5.722;2023-02-15T09:27:59;57.33;45.00;31.00
62547;PMS7003;48602;45.192;5.722;2023-02-15T09:30:24;49.33;43.33;31.00
62547;PMS7003;48602;45.192;5.722;2023-02-15T09:32:50;53.33;41.67;31.00
62547;PMS7003;48602;45.192;5.722;2023-02-15T09:35:15;48.33;38.67;27.33
62547;PMS7003;48602;45.192;5.722;2023-02-15T09:37:41;50.00;39.00;27.00
62547;PMS7003;48602;45.192;5.722;2023-02-15T09:40:06;51.33;41.33;31.00
62547;PMS7003;48602;45.192;5.722;2023-02-15T09:51:16;43.33;37.67;27.00
62547;PMS7003;48602;45.192;5.722;2023-02-15T10:13:02;40.33;35.00;25.00
62547;PMS7003;48602;45.192;5.722;2023-02-15T10:21:23;44.67;34.33;25.00
62547;PMS7003;48602;45.192;5.722;2023-02-15T10:27:05;43.00;38.00;25.00
62547;PMS7003;48602;45.192;5.722;2023-02-15T10:29:37;44.67;37.67;27.00
62547;PMS7003;48602;45.192;5.722;2023-02-15T10:32:23;44.33;38.00;26.00
62547;PMS7003;48602;45.192;5.722;2023-02-15T10:35:01;40.33;37.00;26.00
62547;PMS7003;48602;45.192;5.722;2023-02-15T10:38:03;40.33;37.00;26.00
62547;PMS7003;48602;45.192;5.722;2023-02-15T10:40:46;47.33;38.00;27.00
62547;PMS7003;48602;45.192;5.722;2023-02-15T10:55:06;34.67;30.67;22.00
62547;PMS7003;48602;45.192;5.722;2023-02-15T10:57:45;37.33;30.67;23.00
62547;PMS7003;48602;45.192;5.722;2023-02-15T11:00:30;32.00;29.33;20.67
62547;PMS7003;48602;45.192;5.722;2023-02-15T11:05:53;31.67;30.33;23.00
62547;PMS7003;48602;45.192;5.722;2023-02-15T11:08:22;31.00;29.00;22.00
62547;PMS7003;48602;45.192;5.722;2023-02-15T11:10:51;32.67;30.00;23.00
62547;PMS7003;48602;45.192;5.722;2023-02-15T11:13:22;32.67;32.33;24.00
62547;PMS7003;48602;45.192;5.722;2023-02-15T11:15:56;36.00;33.00;24.00
62547;PMS7003;48602;45.192;5.722;2023-02-15T11:20:56;44.33;35.67;25.00
62547;PMS7003;48602;45.192;5.722;2023-02-15T11:23:26;39.33;36.00;24.33
62547;PMS7003;48602;45.192;5.722;2023-02-15T11:25:59;32.33;28.67;21.67
62547;PMS7003;48602;45.192;5.722;2023-02-15T11:30:56;33.00;27.33;22.00
62547;PMS7003;48602;45.192;5.722;2023-02-15T11:33:28;39.33;33.67;21.00
62547;PMS7003;48602;45.192;5.722;2023-02-15T11:36:14;46.00;37.00;25.00
62547;PMS7003;48602;45.192;5.722;2023-02-15T11:38:44;49.67;39.00;25.67
62547;PMS7003;48602;45.192;5.722;2023-02-15T11:41:19;45.33;38.33;26.33
62547;PMS7003;48602;45.192;5.722;2023-02-15T11:44:00;48.67;35.33;26.33
62547;PMS7003;48602;45.192;5.722;2023-02-15T11:46:30;45.67;39.00;28.00
62547;PMS7003;48602;45.192;5.722;2023-02-15T11:48:56;44.00;39.00;26.00
62547;PMS7003;48602;45.192;5.722;2023-02-15T11:51:22;50.33;38.33;25.33
62547;PMS7003;48602;45.192;5.722;2023-02-15T11:53:48;41.33;34.33;22.33
62547;PMS7003;48602;45.192;5.722;2023-02-15T11:56:19;50.00;35.33;25.67
62547;PMS7003;48602;45.192;5.722;2023-02-15T12:01:30;49.67;38.00;24.33
62547;PMS7003;48602;45.192;5.722;2023-02-15T12:03:59;47.67;39.33;25.67
62547;PMS7003;48602;45.192;5.722;2023-02-15T12:06:37;50.33;39.67;26.00
62547;PMS7003;48602;45.192;5.722;2023-02-15T12:09:24;48.67;37.00;26.00
62547;PMS7003;48602;45.192;5.722;2023-02-15T12:14:49;49.00;40.00;26.67
62547;PMS7003;48602;45.192;5.722;2023-02-15T12:17:15;39.00;35.00;25.00
62547;PMS7003;48602;45.192;5.722;2023-02-15T12:19:42;40.00;33.00;26.00
62547;PMS7003;48602;45.192;5.722;2023-02-15T12:22:17;42.33;36.67;25.00
62547;PMS7003;48602;45.192;5.722;2023-02-15T12:24:49;33.33;31.00;21.33
62547;PMS7003;48602;45.192;5.722;2023-02-15T12:27:19;31.33;30.00;19.33
62547;PMS7003;48602;45.192;5.722;2023-02-15T12:32:18;31.67;31.00;23.00
62547;PMS7003;48602;45.192;5.722;2023-02-15T12:34:47;47.67;37.00;25.67
62547;PMS7003;48602;45.192;5.722;2023-02-15T12:37:25;33.67;30.33;21.33
62547;PMS7003;48602;45.192;5.722;2023-02-15T12:39:57;50.33;40.67;26.67
62547;PMS7003;48602;45.192;5.722;2023-02-15T12:42:26;46.67;38.67;26.67
62547;PMS7003;48602;45.192;5.722;2023-02-15T12:45:19;47.00;39.00;27.33
62547;PMS7003;48602;45.192;5.722;2023-02-15T12:50:38;40.00;32.00;21.00
62547;PMS7003;48602;45.192;5.722;2023-02-15T12:53:12;46.67;37.67;24.00
62547;PMS7003;48602;45.192;5.722;2023-02-15T12:58:27;40.00;34.00;23.67
62547;PMS7003;48602;45.192;5.722;2023-02-15T13:04:03;37.33;32.67;22.00
62547;PMS7003;48602;45.192;5.722;2023-02-15T13:06:29;32.67;31.00;21.67
62547;PMS7003;48602;45.192;5.722;2023-02-15T13:09:14;36.00;31.67;22.67
62547;PMS7003;48602;45.192;5.722;2023-02-15T13:11:43;36.00;33.00;23.00
62547;PMS7003;48602;45.192;5.722;2023-02-15T13:14:24;39.33;30.00;21.00
62547;PMS7003;48602;45.192;5.722;2023-02-15T13:17:00;34.00;31.67;22.67
62547;PMS7003;48602;45.192;5.722;2023-02-15T13:19:34;35.67;32.00;22.00
62547;PMS7003;48602;45.192;5.722;2023-02-15T13:22:06;30.33;29.00;21.00
62547;PMS7003;48602;45.192;5.722;2023-02-15T13:24:39;35.00;28.00;21.00
62547;PMS7003;48602;45.192;5.722;2023-02-15T13:27:11;33.00;29.33;20.33
62547;PMS7003;48602;45.192;5.722;2023-02-15T13:29:45;34.33;29.67;20.33
62547;PMS7003;48602;45.192;5.722;2023-02-15T13:32:28;26.00;22.00;15.67
62547;PMS7003;48602;45.192;5.722;2023-02-15T13:34:58;31.00;24.67;18.00
62547;PMS7003;48602;45.192;5.722;2023-02-15T13:37:43;32.00;25.33;17.00
62547;PMS7003;48602;45.192;5.722;2023-02-15T13:45:52;28.25;24.00;18.75
62547;PMS7003;48602;45.192;5.722;2023-02-15T13:48:16;22.00;20.00;15.00
62547;PMS7003;48602;45.192;5.722;2023-02-15T14:07:53;28.00;22.00;18.00
62547;PMS7003;48602;45.192;5.722;2023-02-15T14:13:12;21.00;19.75;15.50
62547;PMS7003;48602;45.192;5.722;2023-02-15T14:18:43;21.25;20.50;16.00
62547;PMS7003;48602;45.192;5.722;2023-02-15T14:29:56;22.25;21.25;15.75
62547;PMS7003;48602;45.192;5.722;2023-02-15T14:35:41;27.67;23.00;17.33
62547;PMS7003;48602;45.192;5.722;2023-02-15T14:41:19;21.00;20.00;15.25
62547;PMS7003;48602;45.192;5.722;2023-02-15T14:46:58;26.00;20.25;15.50
62547;PMS7003;48602;45.192;5.722;2023-02-15T14:49:32;18.67;18.33;15.00
62547;PMS7003;48602;45.192;5.722;2023-02-15T14:52:08;17.25;15.00;13.00
62547;PMS7003;48602;45.192;5.722;2023-02-15T15:05:10;23.75;21.50;15.75
62547;PMS7003;48602;45.192;5.722;2023-02-15T15:07:57;24.25;21.00;16.75
62547;PMS7003;48602;45.192;5.722;2023-02-15T15:12:54;21.00;18.75;15.25
62547;PMS7003;48602;45.192;5.722;2023-02-15T15:18:07;31.00;26.67;19.67
62547;PMS7003;48602;45.192;5.722;2023-02-15T15:25:42;26.25;24.00;19.50
62547;PMS7003;48602;45.192;5.722;2023-02-15T15:28:33;28.75;26.00;19.50
62547;PMS7003;48602;45.192;5.722;2023-02-15T15:51:12;26.25;22.50;17.25
62547;PMS7003;48602;45.192;5.722;2023-02-15T15:53:44;24.00;20.75;16.25
62547;PMS7003;48602;45.192;5.722;2023-02-15T15:56:20;25.00;22.50;16.00
62547;PMS7003;48602;45.192;5.722;2023-02-15T15:59:50;22.75;20.75;17.00
62547;PMS7003;48602;45.192;5.722;2023-02-15T16:01:51;25.50;23.75;16.25
62547;PMS7003;48602;45.192;5.722;2023-02-15T16:04:25;25.25;23.25;18.25
62547;PMS7003;48602;45.192;5.722;2023-02-15T16:06:56;26.75;25.00;17.50
62547;PMS7003;48602;45.192;5.722;2023-02-15T16:11:53;19.75;17.75;14.25
62547;PMS7003;48602;45.192;5.722;2023-02-15T16:14:26;28.67;25.33;19.00
62547;PMS7003;48602;45.192;5.722;2023-02-15T16:16:57;27.00;24.33;18.67
62547;PMS7003;48602;45.192;5.722;2023-02-15T16:19:28;22.33;22.33;17.67
62547;PMS7003;48602;45.192;5.722;2023-02-15T16:22:00;27.25;22.75;17.00
62547;PMS7003;48602;45.192;5.722;2023-02-15T16:32:45;27.00;25.67;18.67
62547;PMS7003;48602;45.192;5.722;2023-02-15T16:35:17;30.67;30.00;20.67
62547;PMS7003;48602;45.192;5.722;2023-02-15T16:37:45;30.00;28.00;19.00
62547;PMS7003;48602;45.192;5.722;2023-02-15T16:42:48;29.33;27.00;19.67
62547;PMS7003;48602;45.192;5.722;2023-02-15T16:45:19;32.00;27.00;19.67
62547;PMS7003;48602;45.192;5.722;2023-02-15T16:47:50;30.00;26.33;18.00
62547;PMS7003;48602;45.192;5.722;2023-02-15T16:50:25;28.67;25.33;18.67
62547;PMS7003;48602;45.192;5.722;2023-02-15T16:52:58;26.33;26.00;18.00
62547;PMS7003;48602;45.192;5.722;2023-02-15T16:55:27;29.00;26.00;19.33
62547;PMS7003;48602;45.192;5.722;2023-02-15T16:57:56;31.33;29.00;19.00
62547;PMS7003;48602;45.192;5.722;2023-02-15T17:00:26;29.67;26.33;20.00
62547;PMS7003;48602;45.192;5.722;2023-02-15T17:05:30;27.67;27.00;18.67
62547;PMS7003;48602;45.192;5.722;2023-02-15T17:08:05;27.00;26.33;19.67
62547;PMS7003;48602;45.192;5.722;2023-02-15T17:10:32;27.33;26.00;19.67
62547;PMS7003;48602;45.192;5.722;2023-02-15T17:13:11;27.00;24.33;18.00
62547;PMS7003;48602;45.192;5.722;2023-02-15T17:15:39;28.33;22.00;16.00
62547;PMS7003;48602;45.192;5.722;2023-02-15T17:18:32;26.67;24.00;18.00
62547;PMS7003;48602;45.192;5.722;2023-02-15T17:21:10;27.00;26.00;19.33
62547;PMS7003;48602;45.192;5.722;2023-02-15T17:23:50;20.67;17.67;15.33
62547;PMS7003;48602;45.192;5.722;2023-02-15T17:28:48;28.67;24.00;17.33
62547;PMS7003;48602;45.192;5.722;2023-02-15T17:31:16;27.00;23.33;16.00
62547;PMS7003;48602;45.192;5.722;2023-02-15T17:33:44;24.00;20.67;16.33
62547;PMS7003;48602;45.192;5.722;2023-02-15T17:36:16;31.67;29.00;19.33
62547;PMS7003;48602;45.192;5.722;2023-02-15T17:39:06;25.00;24.00;18.00
62547;PMS7003;48602;45.192;5.722;2023-02-15T17:41:44;30.00;24.67;18.00
62547;PMS7003;48602;45.192;5.722;2023-02-15T17:44:12;29.67;27.00;18.67
62547;PMS7003;48602;45.192;5.722;2023-02-15T17:46:40;35.33;31.00;20.00